Orbital elements of FENGYUN 1C DEB
| Launched | 9 May 1999 |
| Flight ended | – |
| Launch site | Taiyuan Space Center, PRC |
| Owner | People's Republic of China |
| NORAD ID | 30322 |
| Date fetched |
Epoch osculation |
Inc. [°] |
Ecc. | RA asc node [hr] |
Arg Peri. [°] |
Mean anom [°] |
Mean motion [rev/day] |
Abs. mag |
| Date fetched |
Epoch osculation |
Inc. [°] |
Ecc. | RA asc node [hr] |
Arg Peri. [°] |
Mean anom [°] |
Mean motion [rev/day] |
Abs. mag |
| 2026 May 08 17:57 | 2026 May 05 13:16:36 | 98.3883 | 0.01253 | 22.5294 | 203.4492 | 156.0933 | 14.06656 | – |
| 2026 May 07 17:58 | 2026 May 05 13:16:36 | 98.3883 | 0.01253 | 22.5294 | 203.4492 | 156.0933 | 14.06656 | – |
| 2026 May 06 17:57 | 2026 May 05 13:16:36 | 98.3883 | 0.01253 | 22.5294 | 203.4492 | 156.0933 | 14.06656 | – |
| 2026 May 05 17:57 | 2026 May 05 13:16:36 | 98.3883 | 0.01253 | 22.5294 | 203.4492 | 156.0933 | 14.06656 | – |
| 2026 May 04 17:57 | 2026 Apr 30 13:46:31 | 98.3893 | 0.01252 | 22.2214 | 217.8122 | 156.0933 | 14.06656 | – |
| 2026 May 03 17:57 | 2026 Apr 30 13:46:31 | 98.3893 | 0.01252 | 22.2214 | 217.8122 | 156.0933 | 14.06656 | – |
| 2026 May 02 17:57 | 2026 Apr 30 13:46:31 | 98.3893 | 0.01252 | 22.2214 | 217.8122 | 156.0933 | 14.06656 | – |
| 2026 May 01 17:56 | 2026 Apr 30 13:46:31 | 98.3893 | 0.01252 | 22.2214 | 217.8122 | 156.0933 | 14.06656 | – |
| 2026 Apr 30 17:56 | 2026 Apr 30 13:46:31 | 98.3893 | 0.01252 | 22.2214 | 217.8122 | 156.0933 | 14.06656 | – |
| 2026 Apr 29 17:57 | 2026 Apr 24 07:32:34 | 98.3902 | 0.01252 | 21.8342 | 235.8505 | 156.0933 | 14.06656 | – |
| 2026 Apr 28 17:56 | 2026 Apr 24 07:32:34 | 98.3902 | 0.01252 | 21.8342 | 235.8505 | 156.0933 | 14.06656 | – |
| 2026 Apr 27 17:58 | 2026 Apr 24 07:32:34 | 98.3902 | 0.01252 | 21.8342 | 235.8505 | 156.0933 | 14.06656 | – |
| 2026 Apr 26 17:58 | 2026 Apr 24 07:32:34 | 98.3902 | 0.01252 | 21.8342 | 235.8505 | 156.0933 | 14.06656 | – |
| 2026 Apr 25 17:58 | 2026 Apr 24 07:32:34 | 98.3902 | 0.01252 | 21.8342 | 235.8505 | 156.0933 | 14.06656 | – |
| 2026 Apr 24 17:59 | 2026 Apr 24 07:32:34 | 98.3902 | 0.01252 | 21.8342 | 235.8505 | 156.0933 | 14.06656 | – |
| 2026 Apr 23 17:57 | 2026 Apr 19 13:09:36 | 98.3910 | 0.01252 | 21.5394 | 249.5917 | 156.0933 | 14.06656 | – |
| 2026 Apr 22 17:57 | 2026 Apr 19 13:09:36 | 98.3910 | 0.01252 | 21.5394 | 249.5917 | 156.0933 | 14.06656 | – |
| 2026 Apr 21 17:57 | 2026 Apr 19 13:09:36 | 98.3910 | 0.01252 | 21.5394 | 249.5917 | 156.0933 | 14.06656 | – |
| 2026 Apr 20 17:57 | 2026 Apr 19 13:09:36 | 98.3910 | 0.01252 | 21.5394 | 249.5917 | 156.0933 | 14.06656 | – |
| 2026 Apr 19 17:58 | 2026 Apr 19 13:09:36 | 98.3910 | 0.01252 | 21.5394 | 249.5917 | 156.0933 | 14.06656 | – |
| 2026 Apr 18 17:56 | 2026 Apr 12 00:11:43 | 98.3918 | 0.01256 | 21.0728 | 271.2689 | 156.0933 | 14.06656 | – |
| 2026 Apr 16 17:57 | 2026 Apr 12 00:11:43 | 98.3918 | 0.01256 | 21.0728 | 271.2689 | 156.0933 | 14.06656 | – |
| 2026 Apr 14 17:57 | 2026 Apr 12 00:11:43 | 98.3918 | 0.01256 | 21.0728 | 271.2689 | 156.0933 | 14.06656 | – |
| 2026 Apr 13 17:57 | 2026 Apr 12 00:11:43 | 98.3918 | 0.01256 | 21.0728 | 271.2689 | 156.0933 | 14.06656 | – |
| 2026 Apr 12 17:57 | 2026 Apr 08 00:35:25 | 98.3919 | 0.01259 | 20.8264 | 282.6779 | 156.0933 | 14.06656 | – |
| 2026 Apr 11 17:57 | 2026 Apr 08 00:35:25 | 98.3919 | 0.01259 | 20.8264 | 282.6779 | 156.0933 | 14.06656 | – |